Los Teques, Venezuela
Current Conditions -  °F | °C
As of 3:00 PM on Friday 21 Nov 2014 (Local Time) from SVMI Reporting Station
Scattered Clouds Scattered Clouds  
Wind Chill: 82°   Ceiling: Unl
Heat Index: 88°   Visibility: 6mi
Dew Point: 73°   Wind: 3mph
Humidity: 74%   Direction: 50°NE
Pressure: 29.88"   Gusts: NA
Location:  10.42°N, 67.02°W
Report Text: SVMI 211900Z 05003KT 9999 SCT016 28/23 Q1012 NOSIG
Loading
Personal Weather Stations






























Interactive Weather Map New forecast layout! Learn more

10-Day Weather Forecast

Advertisements
Track Severe Weather on mobile